INDIA METEOROLOGICAL DEPARTMENT, R.M.C. NEW DELHI
Dated:1 - 11 - 2014
METARS


Ahmedabad  
VAAH 011310Z 03004KT 4000 FU SCT080 30/18 Q1011 NOSIG=
Amritsar   
SPECI VIAR 011330Z 00000KT 4000 HZ SCT200 20/13 Q1015=
Bangalore  
VOBL 011330Z 17006KT 360V130 6000 SCT012 BKN080 27/21 Q1016 NOSIG=
Baroda     
VABO 011300Z 30004KT 6000 NSC 31/18 Q1010=
Bhopal     
VABP 011300Z 36005KT 5000 HZ NSC 26/15 Q1015 NOSIG=
Bhubaneswar
VEBS 011330Z 00000KT 3000 HZ NSC 25/22 Q1011 NOSIG=
Chennai    
VOMM 011310Z 00000KT 3000 HZ SCT015 SCT018 FEW025TCU OVC080 26/25 Q1010 BECMG 4000 HZ=
Coimbatore 
VOCB 011330Z 00000KT 5000 HZ FEW015 27/19 Q1012 NOSIG=
Colombo    
VCBI 011310Z VRB03KT 9000 BKN016 29/23 Q1010 NOSIG=
Delhi      
VIDP 011330Z 26003KT 1900 R28/P2000 R29/P2000 22/12 Q1014 NOSIG =
Gauhati    
SPECI VEGT 011330 00000KT 3000 HZ FEW020 25/20 Q1011 NOSIG=
Gaya       
VEGY 011300Z 33002KT 2000 HZ FEW018 26/20 Q1012 =
Goa        
VOGO 011200Z 26008KT 6000 SCT220 32/24 Q1008 NOSIG =
Hyderabad  
VOHS 011310Z 06006KT 4000 HZ FEW015 SCT100 24/09 Q1015 NOSIG=
Imphal     
VEIM 011200Z 00000KT 5000 HZ SCT020 24/19 Q1012 BECMG 4000 BR=
Indore     
VAID 011300Z 04005KT 5000 HZ NSC 29/12 Q1015=
Jabalpur   
VAJB 011200Z 00000KT 6000 SCT200 27/16 Q1014=
Jaipur     
VIJP 011330Z 30005KT 2000 FU SCT030 BKN090 25/11 Q1016 NOSIG=
Khajuraho  
VAKJ 011200Z 05003KT 3000 HZ NSC 29/15 Q1012=
Kochi      
VOCI 011230Z VRB03KT 3000 -TSRA SCT010 SCT015 FEW025CB OVC080 27/24 Q1010 NOSIG=
Kolkata    
VECC 011320Z 33003KT 2500 HZ SCT020 SCT100 27/20 Q1010 NOSIG=
Kozhikode  
VOCL 011330Z 27003KT 5000 HZ FEW012 SCT018 BKN090 28/24 Q1010 NOSIG=
Lucknow    
VILK 011300Z VRB02KT 2000 FU FEW020 SCT100 24/16 Q1012 NOSIG=
Madurai    
SPECI VOMD 011323Z 18005KT 1600 +RA SCT006 BKN015 FEW025CB BKN090 25/24 Q1011 =
Mumbai     
VABB 011310Z 30006KT 2500 FU NSC 30/21 Q1010 NOSIG=
Nagpur     
VANP 011310Z 08002KT 5000 HZ BKN200 25/16 Q1013 NOSIG=
Patna      
VEPT 011250Z 00000KT 2000 HZ FEW018 25/21 Q1011 NOSIG=
Raipur     
VARP 011300Z 00000KT 5000 HZ NSC 25/19 Q1013 NOSIG=
Safdarjung
VIDD 011300Z 00000KT 2000 HZ NSC 23/15 Q1014=
Ranchi     
VERC 011300Z 32004KT 3000 HZ SCT100 24/17 Q1015 NOSIG=
Trichy     
VOTR 011310Z 05004KT 6000 FEW018 SCT100 29/21 Q1010 NOSIG=
Trivandrum 
VOTV 011310Z 09003KT 5000 -TSRA SCT015 FEW025CB BKN090 29/24 Q1010 TEMPO 4000 TSRA=
Udaipur    
VAUD 011300Z 01007KT 4000 HZ FEW030 BKN080 27/15 Q1016=
Varanasi   
VIBN 011230Z 23001KT 3000 HZ NSC 26/21 Q1012=
Vizag      
VOVZ 011300Z 07005KT 5000 BR FEW018 SCT090 28/24 Q1010 NOSIG=
Male       
VRMM 011300Z 25012KT 6000 -SHRA SCT015 FEW016CB OVC100 25/24 Q1012 CB N,S,SW TEMPO 3000 -SHRA=
Kathmandu   
VNKT 011320Z 26005KT 7000 FEW020 18/13 Q1018 NOSIG=
Dhaka      
VGHS 011250Z 00000KT 4000 HZ NSC 27/19 Q1009 NOSIG=
Colombo     
VCBI 011310Z VRB03KT 9000 BKN016 29/23 Q1010 NOSIG=
Karachi     
OPKC 011300Z NIL=
Gwalior    
VIGR 011200Z 00000KT 1500 BR SCT100 28/16 Q1013=